Time;durP1;ratioP1;P1;durP2;ratioP2;P2;SDS_P1;SDS_P2;PMS_P1;PMS_P2;Temp;Humidity;BMP_temperature;BMP_pressure;BME280_temperature;BME280_humidity;BME280_pressure;Samples;Min_cycle;Max_cycle;Signal;HPM_P1;HPM_P2
2023/05/26 00:02:14;;;;;;;;;13.67;13.67;;;;;18.47;47.01;101723.16;4976958;28;45459;-56
2023/05/26 00:04:43;;;;;;;;;12.00;10.67;;;;;18.43;47.28;101716.25;4977134;28;45539;-56
2023/05/26 00:07:08;;;;;;;;;13.00;13.00;;;;;18.45;47.57;101725.03;4976964;28;45402;-52
2023/05/26 00:09:33;;;;;;;;;11.00;9.33;;;;;18.41;47.58;101723.47;4976576;28;46285;-55
2023/05/26 00:11:59;;;;;;;;;13.00;12.00;;;;;18.37;47.59;101713.91;4976855;28;45344;-54
2023/05/26 00:14:24;;;;;;;;;13.00;13.00;;;;;18.33;47.55;101714.06;4976589;28;45819;-56
2023/05/26 00:16:50;;;;;;;;;10.67;10.67;;;;;18.37;48.03;101720.09;4973921;28;45528;-53
2023/05/26 00:19:17;;;;;;;;;12.00;12.00;;;;;18.32;48.07;101716.78;4976424;28;46634;-54
2023/05/26 00:21:43;;;;;;;;;12.00;12.00;;;;;18.18;47.95;101711.28;4976439;28;45484;-53
2023/05/26 00:24:08;;;;;;;;;10.67;10.67;;;;;18.17;48.49;101718.44;4985845;28;46065;-53
2023/05/26 00:26:34;;;;;;;;;10.67;10.67;;;;;18.05;48.23;101697.72;4996010;28;45361;-55
2023/05/26 00:28:59;;;;;;;;;14.00;14.00;;;;;18.05;48.70;101705.72;4996044;28;45432;-54
2023/05/26 00:31:25;;;;;;;;;11.33;9.33;;;;;18.09;48.26;101720.59;4995852;28;45432;-53
2023/05/26 00:33:50;;;;;;;;;10.67;7.67;;;;;18.07;48.21;101706.50;4995984;28;45439;-53
2023/05/26 00:36:15;;;;;;;;;11.33;10.67;;;;;17.98;48.59;101701.63;4996325;28;46936;-54
2023/05/26 00:38:41;;;;;;;;;10.33;9.33;;;;;17.96;48.74;101698.19;4995619;28;47325;-51
2023/05/26 00:41:07;;;;;;;;;13.33;12.33;;;;;17.88;48.54;101704.72;4995903;28;45380;-56
2023/05/26 00:43:32;;;;;;;;;14.00;13.33;;;;;17.83;49.00;101697.91;4995766;28;45337;-54
2023/05/26 00:45:57;;;;;;;;;12.00;11.00;;;;;17.79;49.25;101705.19;4995356;28;56797;-54
2023/05/26 00:48:23;;;;;;;;;12.67;12.67;;;;;17.83;49.07;101696.09;4995743;28;45463;-54
2023/05/26 00:50:48;;;;;;;;;14.67;13.33;;;;;17.77;49.28;101692.84;4995576;28;45409;-57
2023/05/26 00:53:14;;;;;;;;;15.00;12.67;;;;;17.78;48.90;101694.56;4995902;28;45326;-54
2023/05/26 00:55:40;;;;;;;;;10.67;10.67;;;;;17.75;49.35;101690.25;4995543;28;45647;-56
2023/05/26 00:58:06;;;;;;;;;10.67;10.67;;;;;17.74;49.38;101691.19;4995414;28;46500;-59
2023/05/26 01:00:31;;;;;;;;;12.33;11.33;;;;;17.72;49.53;101690.41;4995402;28;45533;-54
2023/05/26 01:02:58;;;;;;;;;17.00;15.00;;;;;17.64;49.40;101692.56;4976936;28;45421;-55
2023/05/26 01:05:24;;;;;;;;;15.00;14.00;;;;;17.56;50.29;101690.25;4995838;28;45455;-55
2023/05/26 01:07:50;;;;;;;;;14.33;14.33;;;;;17.53;50.28;101682.44;4995114;28;45491;-55
2023/05/26 01:10:16;;;;;;;;;13.00;12.67;;;;;17.56;49.98;101689.41;4995238;28;45540;-52
2023/05/26 01:12:56;;;;;;;;;12.50;12.50;;;;;17.54;50.52;101686.81;4995553;28;45488;-54
2023/05/26 01:15:29;;;;;;;;;15.67;13.67;;;;;17.55;50.43;101693.88;4995191;28;45589;-55
2023/05/26 01:18:13;;;;;;;;;13.00;13.00;;;;;17.47;50.52;101684.53;4994664;28;45632;-55
2023/05/26 01:20:48;;;;;;;;;18.67;16.00;;;;;17.49;50.74;101694.16;4995215;28;45482;-53
2023/05/26 01:23:20;;;;;;;;;17.67;15.67;;;;;17.47;51.27;101697.84;4995271;28;45588;-56
2023/05/26 01:26:04;;;;;;;;;14.33;14.33;;;;;17.35;50.90;101694.78;4995231;28;45472;-55
2023/05/26 01:28:31;;;;;;;;;13.67;13.33;;;;;17.27;51.28;101688.97;4997044;28;45955;-55
2023/05/26 01:30:58;;;;;;;;;16.33;15.67;;;;;17.25;51.53;101697.94;4998565;28;45417;-54
2023/05/26 01:33:23;;;;;;;;;17.00;15.67;;;;;17.24;51.39;101694.41;4998732;28;45404;-55
2023/05/26 01:35:48;;;;;;;;;14.33;14.00;;;;;17.20;51.40;101690.19;4998535;28;45440;-55
2023/05/26 01:38:14;;;;;;;;;19.00;17.33;;;;;17.18;51.69;101692.91;4985047;28;52736;-54
2023/05/26 01:40:41;;;;;;;;;13.67;13.67;;;;;17.14;51.73;101704.63;4998556;28;45373;-55
2023/05/26 01:43:38;;;;;;;;;18.00;16.67;;;;;17.10;51.89;101707.47;4998600;28;45428;-56
2023/05/26 01:46:25;;;;;;;;;18.00;16.33;;;;;17.10;51.66;101702.16;4993819;28;45365;-56
2023/05/26 01:48:53;;;;;;;;;17.33;17.00;;;;;17.07;51.91;101699.66;4998471;28;46178;-53
2023/05/26 01:51:21;;;;;;;;;16.67;15.67;;;;;17.05;52.37;101699.72;4998219;28;45606;-54
2023/05/26 01:53:51;;;;;;;;;22.67;20.67;;;;;17.02;52.35;101701.66;4998417;28;45511;-55
2023/05/26 01:56:18;;;;;;;;;18.67;17.00;;;;;17.04;51.95;101705.97;4998197;28;45400;-57
2023/05/26 01:58:45;;;;;;;;;16.67;15.33;;;;;17.09;52.23;101705.78;4998150;28;45495;-57
2023/05/26 02:01:11;;;;;;;;;19.00;19.00;;;;;17.07;52.32;101694.34;4998316;28;45475;-52
2023/05/26 02:03:36;;;;;;;;;18.33;16.33;;;;;17.03;52.53;101695.38;4998168;28;45546;-57
2023/05/26 02:06:02;;;;;;;;;21.33;18.67;;;;;17.05;52.59;101705.03;4998231;28;45553;-54
2023/05/26 02:08:27;;;;;;;;;20.33;17.33;;;;;17.01;52.50;101716.75;4997867;28;46316;-56
2023/05/26 02:10:52;;;;;;;;;23.67;18.67;;;;;16.92;52.54;101694.06;4997951;28;45464;-56
2023/05/26 02:13:18;;;;;;;;;18.33;16.00;;;;;16.88;52.32;101703.13;4998138;28;45496;-55
2023/05/26 02:15:43;;;;;;;;;19.00;17.67;;;;;16.80;52.70;101705.25;4997937;28;45541;-56
2023/05/26 02:18:10;;;;;;;;;16.33;16.33;;;;;16.76;53.37;101709.81;4997792;28;45672;-54
2023/05/26 02:20:35;;;;;;;;;24.00;19.00;;;;;16.76;53.50;101704.50;4997830;28;45426;-51
2023/05/26 02:23:01;;;;;;;;;19.00;16.67;;;;;16.73;53.34;101709.06;4997921;28;45412;-56
2023/05/26 02:25:26;;;;;;;;;23.00;20.67;;;;;16.66;53.38;101697.84;4997619;28;47708;-53
2023/05/26 02:27:51;;;;;;;;;19.67;17.00;;;;;16.61;53.69;101697.19;4997760;28;45530;-57
2023/05/26 02:30:17;;;;;;;;;22.00;19.33;;;;;16.63;53.36;101711.28;4980198;28;45845;-55
2023/05/26 02:32:42;;;;;;;;;17.00;17.00;;;;;16.56;54.01;101708.00;4997820;28;45448;-55
2023/05/26 02:35:08;;;;;;;;;19.00;17.33;;;;;16.53;53.90;101712.59;4997502;28;55174;-55
2023/05/26 02:37:33;;;;;;;;;17.67;16.00;;;;;16.30;54.27;101676.38;4997914;28;46358;-53
2023/05/26 02:39:58;;;;;;;;;18.33;17.33;;;;;16.45;53.95;101702.28;4997438;28;45434;-57
2023/05/26 02:42:24;;;;;;;;;20.67;19.00;;;;;16.49;53.70;101705.66;4997688;28;45372;-52
2023/05/26 02:44:50;;;;;;;;;18.67;17.00;;;;;16.53;53.91;101708.13;4979989;28;45349;-53
2023/05/26 02:47:15;;;;;;;;;17.00;17.00;;;;;16.45;54.28;101702.28;4997521;28;45576;-55
2023/05/26 02:49:42;;;;;;;;;13.67;13.67;;;;;16.41;54.51;101702.47;4997381;28;45396;-54
2023/05/26 02:52:07;;;;;;;;;17.00;16.00;;;;;16.35;54.95;101693.84;4997758;28;45572;-52
2023/05/26 02:54:33;;;;;;;;;18.67;17.00;;;;;16.28;54.87;101694.16;4997226;28;45542;-56
2023/05/26 02:56:58;;;;;;;;;15.33;15.33;;;;;16.28;54.40;101702.13;4997492;28;48859;-54
2023/05/26 02:59:23;;;;;;;;;19.33;17.00;;;;;16.26;54.03;101690.72;4997197;28;45454;-52
2023/05/26 03:01:49;;;;;;;;;17.00;14.67;;;;;16.32;54.42;101701.94;4997483;28;45428;-55
2023/05/26 03:04:14;;;;;;;;;15.00;14.33;;;;;16.37;54.40;101698.22;4997099;28;48236;-54
2023/05/26 03:06:41;;;;;;;;;16.00;16.00;;;;;16.38;54.33;101700.81;4997055;28;45432;-55
2023/05/26 03:09:07;;;;;;;;;16.67;15.33;;;;;16.32;54.12;101699.28;4997445;28;45383;-55
2023/05/26 03:11:32;;;;;;;;;17.33;15.67;;;;;16.26;54.07;101698.69;4997255;28;45451;-56
2023/05/26 03:13:57;;;;;;;;;15.00;15.00;;;;;16.24;54.24;101692.56;4996968;28;45448;-58
2023/05/26 03:16:23;;;;;;;;;13.67;13.67;;;;;16.22;54.99;101703.22;4997174;28;45586;-56
2023/05/26 03:18:49;;;;;;;;;17.67;14.67;;;;;16.05;54.45;101684.50;4996823;28;45416;-57
2023/05/26 03:21:16;;;;;;;;;15.00;13.33;;;;;16.13;55.35;101698.31;4997284;28;45317;-55
2023/05/26 03:23:42;;;;;;;;;16.00;14.00;;;;;16.12;54.29;101699.25;4996684;28;45609;-57
2023/05/26 03:26:07;;;;;;;;;13.00;11.33;;;;;16.00;54.76;101687.34;4996920;28;45469;-57
2023/05/26 03:28:33;;;;;;;;;17.67;14.67;;;;;15.98;54.82;101688.31;4996988;28;45427;-56
2023/05/26 03:30:58;;;;;;;;;16.00;16.00;;;;;15.98;55.20;101688.31;4996893;28;45446;-56
2023/05/26 03:33:23;;;;;;;;;12.33;10.00;;;;;15.97;54.97;101697.22;4996836;28;45415;-55
2023/05/26 03:35:49;;;;;;;;;15.00;15.00;;;;;15.88;55.44;101683.41;4996575;28;46237;-55
2023/05/26 03:38:14;;;;;;;;;15.00;12.00;;;;;15.96;54.86;101701.66;4997420;28;45416;-54
2023/05/26 03:40:39;;;;;;;;;18.00;15.00;;;;;15.98;55.09;101696.28;4978910;28;45458;-55
2023/05/26 03:43:05;;;;;;;;;18.33;15.67;;;;;15.96;55.89;101691.06;4997091;28;45583;-53
2023/05/26 03:45:30;;;;;;;;;13.00;13.00;;;;;15.98;55.25;101693.63;4979054;28;47249;-57
2023/05/26 03:47:55;;;;;;;;;22.67;16.67;;;;;15.93;54.92;101677.88;4996635;28;45568;-57
2023/05/26 03:50:21;;;;;;;;;19.33;14.67;;;;;15.99;54.96;101690.06;4995665;28;45487;-54
2023/05/26 03:52:48;;;;;;;;;14.33;13.67;;;;;15.92;55.03;101683.25;4996438;28;45505;-55
2023/05/26 03:55:17;;;;;;;;;18.67;14.33;;;;;15.93;54.92;101684.97;4996198;28;46182;-56
2023/05/26 03:57:43;;;;;;;;;17.33;17.00;;;;;15.87;54.98;101676.34;4996242;28;45534;-55
2023/05/26 04:00:10;;;;;;;;;14.00;14.00;;;;;15.92;55.07;101691.22;4996355;28;45459;-52
2023/05/26 04:02:36;;;;;;;;;16.00;15.67;;;;;15.90;54.85;101680.66;4979163;28;45607;-53
2023/05/26 04:05:01;;;;;;;;;15.33;14.00;;;;;15.76;55.84;101654.69;4996139;28;45415;-52
2023/05/26 04:07:27;;;;;;;;;16.33;15.67;;;;;15.89;55.13;101677.16;4996152;28;45623;-53
2023/05/26 04:09:52;;;;;;;;;16.33;15.33;;;;;15.93;55.35;101688.50;4996147;28;46551;-55
2023/05/26 04:12:17;;;;;;;;;15.67;14.33;;;;;15.95;55.21;101680.47;4996262;28;45707;-55
2023/05/26 04:14:43;;;;;;;;;14.33;12.33;;;;;15.98;54.93;101689.16;4996142;28;45468;-53
2023/05/26 04:17:08;;;;;;;;;12.67;9.00;;;;;15.99;54.84;101690.91;4995994;28;45780;-55
2023/05/26 04:19:33;;;;;;;;;16.33;13.00;;;;;15.99;54.85;101677.66;4996234;28;47682;-55
2023/05/26 04:21:59;;;;;;;;;16.33;15.33;;;;;16.02;54.50;101692.59;4996003;28;45553;-53
2023/05/26 04:24:26;;;;;;;;;13.33;13.33;;;;;16.03;54.99;101699.59;4995728;28;45440;-55
2023/05/26 04:26:52;;;;;;;;;14.67;11.00;;;;;16.02;55.30;101700.56;4996138;28;45645;-56
2023/05/26 04:29:18;;;;;;;;;14.00;13.00;;;;;16.02;54.86;101700.56;4978289;28;45507;-56
2023/05/26 04:31:44;;;;;;;;;16.33;13.00;;;;;15.86;54.67;101692.34;4996236;28;45531;-56
2023/05/26 04:34:10;;;;;;;;;15.33;13.33;;;;;15.86;55.19;101700.28;4995598;28;46748;-51
2023/05/26 04:36:40;;;;;;;;;18.00;14.67;;;;;15.86;54.88;101687.88;4995671;28;45586;-57
2023/05/26 04:39:06;;;;;;;;;18.33;14.67;;;;;15.84;55.35;101695.03;4995639;28;45407;-57
2023/05/26 04:41:32;;;;;;;;;11.67;11.67;;;;;15.90;54.46;101705.44;4977989;28;45525;-58
2023/05/26 04:43:58;;;;;;;;;14.67;13.00;;;;;15.88;55.30;101699.31;4995304;28;46510;-52
2023/05/26 04:46:24;;;;;;;;;14.00;12.33;;;;;15.95;55.44;101701.72;4995528;28;45531;-54
2023/05/26 04:48:49;;;;;;;;;15.33;12.00;;;;;15.91;55.22;101703.63;4995707;28;45375;-56
2023/05/26 04:51:14;;;;;;;;;18.67;13.67;;;;;15.85;54.92;101704.75;4995027;28;54010;-54
2023/05/26 04:53:40;;;;;;;;;14.33;13.67;;;;;15.88;54.76;101709.91;4995280;28;45376;-56
2023/05/26 04:56:06;;;;;;;;;14.33;12.33;;;;;15.88;55.28;101715.22;4977418;28;45546;-58
2023/05/26 04:58:36;;;;;;;;;14.00;14.00;;;;;15.88;54.39;101709.91;4995483;28;45524;-54
2023/05/26 05:01:02;;;;;;;;;14.33;13.00;;;;;15.83;54.70;101705.72;4995262;28;45453;-52
2023/05/26 05:03:29;;;;;;;;;16.33;12.67;;;;;15.79;55.00;101726.19;4994085;28;45522;-56
2023/05/26 05:05:54;;;;;;;;;14.33;14.33;;;;;15.70;55.36;101715.94;4995408;28;45554;-56
2023/05/26 05:08:20;;;;;;;;;18.33;16.67;;;;;15.65;54.65;101724.03;4995309;28;45457;-56
2023/05/26 05:10:45;;;;;;;;;17.00;17.00;;;;;15.60;55.46;101718.03;4995390;28;45418;-53
2023/05/26 05:13:10;;;;;;;;;12.33;11.67;;;;;15.60;55.97;101715.41;4995271;28;46140;-55
2023/05/26 05:15:36;;;;;;;;;15.67;14.33;;;;;15.67;55.26;101724.00;4995065;28;45459;-54
2023/05/26 05:18:02;;;;;;;;;14.00;13.00;;;;;15.63;55.62;101720.56;4995450;28;45420;-57
2023/05/26 05:20:28;;;;;;;;;11.00;11.00;;;;;15.64;55.87;101729.41;4995288;28;45428;-54
2023/05/26 05:22:54;;;;;;;;;14.33;13.33;;;;;15.65;55.36;101739.09;4995178;28;45411;-51
2023/05/26 05:25:20;;;;;;;;;14.00;12.00;;;;;15.68;55.62;101738.97;4994791;28;45545;-57
2023/05/26 05:27:45;;;;;;;;;12.67;11.00;;;;;15.74;55.43;101743.22;4994965;28;45362;-54
2023/05/26 05:30:14;;;;;;;;;12.67;12.00;;;;;15.68;54.66;101736.31;4995247;28;45638;-55
2023/05/26 05:32:39;;;;;;;;;18.67;14.00;;;;;15.63;55.19;101740.94;4994738;28;46603;-55
2023/05/26 05:35:05;;;;;;;;;14.33;14.33;;;;;15.71;55.24;101743.31;4994462;28;54154;-54
2023/05/26 05:37:30;;;;;;;;;16.67;16.00;;;;;15.75;54.64;101745.81;4995476;28;45411;-55
2023/05/26 05:39:55;;;;;;;;;12.67;11.00;;;;;15.71;55.40;101741.53;4994957;28;45589;-56
2023/05/26 05:42:22;;;;;;;;;15.67;15.00;;;;;15.73;54.84;101746.78;4994703;28;46256;-56
2023/05/26 05:44:47;;;;;;;;;14.00;13.00;;;;;15.76;55.81;101744.00;4994994;28;45438;-53
2023/05/26 05:47:12;;;;;;;;;20.33;17.00;;;;;15.79;54.80;101750.06;4994830;28;45396;-56
2023/05/26 05:49:38;;;;;;;;;18.00;14.33;;;;;15.78;55.31;101764.25;4994938;28;45577;-54
2023/05/26 05:52:03;;;;;;;;;15.33;14.67;;;;;15.72;54.95;101761.84;4994643;28;45459;-56
2023/05/26 05:54:28;;;;;;;;;14.00;13.00;;;;;15.77;55.71;101759.00;4994648;28;45468;-55
2023/05/26 05:56:54;;;;;;;;;16.50;14.50;;;;;15.78;54.72;101753.66;4994923;28;45492;-54
2023/05/26 05:59:19;;;;;;;;;15.33;14.00;;;;;15.85;54.65;101752.50;4994773;28;45589;-55
2023/05/26 06:01:44;;;;;;;;;17.00;16.67;;;;;15.89;54.57;101761.19;4994819;28;46057;-54
2023/05/26 06:04:10;;;;;;;;;17.33;13.67;;;;;15.90;54.78;101760.25;4994894;28;45546;-51
2023/05/26 06:06:36;;;;;;;;;17.00;14.33;;;;;15.95;54.93;101766.25;4994621;28;45483;-53
2023/05/26 06:09:01;;;;;;;;;18.00;15.33;;;;;15.97;54.19;101767.06;4994745;28;45547;-56
2023/05/26 06:11:27;;;;;;;;;19.00;15.67;;;;;16.00;54.61;101766.94;4994361;28;46520;-54
2023/05/26 06:13:52;;;;;;;;;21.00;14.33;;;;;15.97;54.94;101764.41;4995523;28;45512;-54
2023/05/26 06:16:17;;;;;;;;;16.33;16.00;;;;;15.93;54.04;101776.03;4998013;28;45404;-55
2023/05/26 06:18:43;;;;;;;;;19.33;17.33;;;;;15.90;54.25;101769.09;4997754;28;47616;-52
2023/05/26 06:21:08;;;;;;;;;14.00;13.33;;;;;15.97;54.82;101775.03;4997650;28;45408;-57
2023/05/26 06:23:33;;;;;;;;;15.67;15.33;;;;;15.95;54.81;101766.25;4997603;28;45459;-55
2023/05/26 06:25:59;;;;;;;;;20.00;16.33;;;;;15.90;55.03;101774.41;4984204;28;45409;-57
2023/05/26 06:28:24;;;;;;;;;19.33;17.00;;;;;15.88;54.83;101764.78;4997489;28;52756;-54
2023/05/26 06:30:50;;;;;;;;;13.33;13.33;;;;;15.78;54.80;101735.06;4997405;28;46510;-54
2023/05/26 06:33:15;;;;;;;;;14.67;14.67;;;;;15.93;54.68;101751.31;4997744;28;45520;-52
2023/05/26 06:35:40;;;;;;;;;17.00;16.00;;;;;16.01;54.14;101758.06;4997534;28;45457;-54
2023/05/26 06:38:06;;;;;;;;;22.00;21.67;;;;;16.12;54.08;101770.91;4980547;28;45420;-56
2023/05/26 06:40:31;;;;;;;;;16.33;14.00;;;;;16.19;54.27;101768.88;4997510;28;45472;-56
2023/05/26 06:42:56;;;;;;;;;15.67;15.67;;;;;16.18;54.34;101761.84;4997200;28;45502;-54
2023/05/26 06:45:22;;;;;;;;;17.33;17.33;;;;;16.19;54.62;101764.41;4997770;28;45416;-56
2023/05/26 06:47:47;;;;;;;;;18.33;17.67;;;;;16.18;54.07;101767.16;4997416;28;45587;-58
2023/05/26 06:50:13;;;;;;;;;16.33;16.00;;;;;16.28;54.10;101765.81;4997400;28;46428;-56
2023/05/26 06:52:38;;;;;;;;;17.00;14.00;;;;;16.28;54.36;101761.41;4997248;28;45376;-54
2023/05/26 06:55:04;;;;;;;;;22.00;19.33;;;;;16.34;54.36;101773.56;4997289;28;45560;-57
2023/05/26 06:57:29;;;;;;;;;20.67;17.00;;;;;16.33;54.29;101766.50;4997350;28;45384;-57
2023/05/26 06:59:54;;;;;;;;;17.00;15.00;;;;;16.38;53.81;101766.31;4996829;28;47428;-58
2023/05/26 07:02:20;;;;;;;;;19.67;16.67;;;;;16.35;53.80;101773.47;4997241;28;45460;-54
2023/05/26 07:04:45;;;;;;;;;18.00;15.33;;;;;16.40;53.69;101765.34;4996472;28;52827;-56
2023/05/26 07:07:11;;;;;;;;;18.00;16.00;;;;;16.38;53.72;101759.22;4997237;28;45428;-52
2023/05/26 07:09:36;;;;;;;;;16.67;14.33;;;;;16.40;53.21;101765.34;4995950;28;45349;-51
2023/05/26 07:12:02;;;;;;;;;19.33;18.00;;;;;16.41;54.37;101767.06;4996719;28;45445;-57
2023/05/26 07:14:27;;;;;;;;;15.67;15.67;;;;;16.38;53.69;101756.56;4997256;28;45480;-55
2023/05/26 07:16:52;;;;;;;;;22.00;18.67;;;;;16.52;53.15;101763.97;4996707;28;45470;-56
2023/05/26 07:19:18;;;;;;;;;17.33;16.33;;;;;16.52;53.91;101751.56;4996979;28;45498;-55
2023/05/26 07:21:43;;;;;;;;;18.33;17.00;;;;;16.54;53.44;101747.03;4996871;28;45476;-54
2023/05/26 07:24:08;;;;;;;;;34.67;32.67;;;;;16.69;53.40;101763.28;4996756;28;45353;-58
2023/05/26 07:26:33;;;;;;;;;20.33;19.00;;;;;16.66;53.12;101764.25;4995912;28;45673;-54
2023/05/26 07:28:59;;;;;;;;;19.33;17.00;;;;;16.71;53.49;101762.28;4996435;28;46190;-57
2023/05/26 07:31:24;;;;;;;;;22.33;21.33;;;;;16.75;53.48;101763.00;4996694;28;45537;-54
2023/05/26 07:33:50;;;;;;;;;21.00;16.67;;;;;16.84;52.99;101767.94;4996541;28;45444;-55
2023/05/26 07:36:15;;;;;;;;;19.00;18.00;;;;;16.86;52.78;101763.44;4996709;28;45636;-53
2023/05/26 07:38:41;;;;;;;;;16.33;15.67;;;;;16.92;53.08;101759.66;4997244;28;45473;-54
2023/05/26 07:41:06;;;;;;;;;19.33;15.33;;;;;17.00;53.11;101776.13;4996208;28;45499;-56
2023/05/26 07:43:31;;;;;;;;;22.67;19.00;;;;;17.00;53.03;101768.16;4996726;28;45504;-56
2023/05/26 07:45:58;;;;;;;;;24.33;22.00;;;;;17.00;52.62;101769.00;4996261;28;54543;-56
2023/05/26 07:48:23;;;;;;;;;18.67;18.00;;;;;17.00;52.72;101766.34;4996465;28;45587;-56
2023/05/26 07:50:49;;;;;;;;;17.33;16.67;;;;;17.06;52.10;101770.56;4996153;28;45464;-53
2023/05/26 07:53:14;;;;;;;;;19.33;19.33;;;;;17.04;52.46;101768.91;4996411;28;45351;-54
2023/05/26 07:55:40;;;;;;;;;21.00;17.00;;;;;16.94;52.62;101763.09;4996130;28;45376;-52
2023/05/26 07:58:05;;;;;;;;;19.00;17.33;;;;;16.97;52.49;101771.81;4996173;28;45361;-56
2023/05/26 08:00:30;;;;;;;;;17.67;17.67;;;;;17.02;52.35;101770.75;4996377;28;45487;-58
2023/05/26 08:02:56;;;;;;;;;23.67;18.67;;;;;17.00;52.36;101763.69;4996600;28;46056;-56
2023/05/26 08:05:21;;;;;;;;;19.67;18.00;;;;;17.09;52.37;101777.53;4996397;28;45349;-53
2023/05/26 08:07:46;;;;;;;;;17.00;16.00;;;;;17.09;52.21;101769.56;4995965;28;46292;-53
2023/05/26 08:10:12;;;;;;;;;14.67;14.00;;;;;17.08;51.85;101767.81;4996068;28;45393;-56
2023/05/26 08:12:37;;;;;;;;;22.33;19.67;;;;;17.13;51.75;101769.34;4996335;28;45486;-54
2023/05/26 08:15:04;;;;;;;;;22.67;22.67;;;;;17.12;52.00;101764.97;4996015;28;45655;-55
2023/05/26 08:17:29;;;;;;;;;22.00;19.00;;;;;17.17;51.96;101762.97;4982051;28;46091;-52
2023/05/26 08:19:55;;;;;;;;;21.67;17.33;;;;;17.07;51.85;101744.84;4995817;28;45487;-55
2023/05/26 08:22:20;;;;;;;;;25.67;19.67;;;;;17.19;51.75;101766.44;4995832;28;45387;-57
2023/05/26 08:24:45;;;;;;;;;23.67;19.33;;;;;17.20;51.69;101767.28;4995664;28;45502;-55
2023/05/26 08:27:10;;;;;;;;;16.00;15.33;;;;;17.21;52.03;101766.34;4995221;28;57458;-57
2023/05/26 08:29:36;;;;;;;;;16.33;16.33;;;;;17.24;52.01;101768.88;4995700;28;45517;-55
2023/05/26 08:32:01;;;;;;;;;21.00;19.00;;;;;17.23;51.65;101761.84;4996033;28;45471;-54
2023/05/26 08:34:27;;;;;;;;;22.33;20.33;;;;;17.29;51.88;101758.03;4995733;28;45384;-53
2023/05/26 08:36:52;;;;;;;;;23.33;20.67;;;;;17.34;51.68;101762.22;4995256;28;45475;-56
2023/05/26 08:39:17;;;;;;;;;20.67;20.00;;;;;17.37;51.70;101766.53;4996467;28;45420;-56
2023/05/26 08:41:55;;;;;;;;;19.67;18.00;;;;;17.43;52.08;101764.44;4995607;28;45462;-53
2023/05/26 08:44:21;;;;;;;;;20.00;17.67;;;;;17.50;51.50;101766.84;4995601;28;45265;-56
2023/05/26 08:46:55;;;;;;;;;27.67;25.67;;;;;17.53;51.75;101764.03;4995574;28;46604;-55
2023/05/26 08:49:21;;;;;;;;;19.67;18.00;;;;;17.59;50.92;101761.94;4977643;28;45422;-57
2023/05/26 08:51:57;;;;;;;;;20.67;19.33;;;;;17.56;51.12;101763.88;4995564;28;45403;-51
2023/05/26 08:54:22;;;;;;;;;16.33;16.33;;;;;17.61;51.07;101770.72;4995382;28;45593;-58
2023/05/26 08:56:49;;;;;;;;;19.33;17.67;;;;;17.62;51.02;101758.28;4995225;28;46485;-56
2023/05/26 08:59:16;;;;;;;;;16.00;16.00;;;;;17.62;51.09;101752.97;4995466;28;45438;-56
2023/05/26 09:01:42;;;;;;;;;19.33;17.33;;;;;17.70;51.17;101765.91;4981952;28;45468;-54
2023/05/26 09:04:07;;;;;;;;;24.33;19.33;;;;;17.75;51.20;101754.13;4995268;28;45432;-56
2023/05/26 09:06:34;;;;;;;;;19.67;18.33;;;;;17.77;51.10;101751.41;4995106;28;45483;-53
2023/05/26 09:09:00;;;;;;;;;20.33;19.00;;;;;17.76;50.67;101742.56;4995536;28;45471;-54
2023/05/26 09:11:27;;;;;;;;;23.00;20.00;;;;;17.85;50.98;101754.59;4995300;28;45467;-54
2023/05/26 09:13:55;;;;;;;;;17.67;17.00;;;;;17.91;50.85;101756.09;4995574;28;45563;-58
2023/05/26 09:16:22;;;;;;;;;19.33;16.33;;;;;17.91;50.51;101753.44;4977366;28;47798;-58
2023/05/26 09:18:48;;;;;;;;;21.33;19.33;;;;;17.97;51.09;101754.00;4994187;28;45466;-55
2023/05/26 09:21:13;;;;;;;;;17.67;17.67;;;;;17.99;51.08;101751.25;4995545;28;45440;-60
2023/05/26 09:23:38;;;;;;;;;20.33;19.00;;;;;18.07;50.67;101760.59;4995384;28;45567;-52
2023/05/26 09:26:06;;;;;;;;;17.33;17.33;;;;;18.13;50.74;101763.91;4995044;28;46217;-50
2023/05/26 09:28:31;;;;;;;;;21.00;17.00;;;;;18.13;50.33;101755.91;4995385;28;45483;-53
2023/05/26 09:30:56;;;;;;;;;16.67;15.67;;;;;18.25;50.35;101766.84;4994660;28;53749;-52
2023/05/26 09:33:22;;;;;;;;;23.00;19.67;;;;;18.25;50.10;101755.34;4994983;28;45525;-53
2023/05/26 09:35:48;;;;;;;;;17.33;15.67;;;;;18.27;50.40;101748.13;4994456;28;46520;-53
2023/05/26 09:38:18;;;;;;;;;20.33;19.00;;;;;18.33;50.35;101756.69;4995638;28;45556;-56
2023/05/26 09:40:46;;;;;;;;;16.33;14.67;;;;;18.31;49.79;101753.22;4994774;28;45396;-55
2023/05/26 09:43:12;;;;;;;;;15.67;15.00;;;;;18.43;49.97;101762.44;4994955;28;45392;-57
2023/05/26 09:45:38;;;;;;;;;24.33;23.33;;;;;18.48;50.31;101770.16;4994506;28;46384;-53
2023/05/26 09:48:06;;;;;;;;;20.33;18.00;;;;;18.46;49.82;101762.28;4994533;28;45537;-54
2023/05/26 09:50:37;;;;;;;;;26.67;24.33;;;;;18.51;49.52;101757.56;4998280;28;45490;-56
2023/05/26 09:53:05;;;;;;;;;19.67;17.33;;;;;18.54;48.80;101760.06;4998289;28;45424;-54
2023/05/26 09:55:31;;;;;;;;;20.00;20.00;;;;;18.57;48.74;101760.88;4997835;28;45415;-52
2023/05/26 09:58:03;;;;;;;;;20.67;18.67;;;;;18.59;48.98;101762.53;4997962;28;45438;-53
2023/05/26 10:00:29;;;;;;;;;16.67;15.00;;;;;18.59;49.29;101750.97;4980685;28;45440;-55
2023/05/26 10:02:55;;;;;;;;;21.67;20.00;;;;;18.63;49.04;101753.41;4997897;28;45419;-50
2023/05/26 10:05:21;;;;;;;;;16.33;16.33;;;;;18.62;48.97;101750.81;4997929;28;46249;-55
2023/05/26 10:07:47;;;;;;;;;13.33;13.00;;;;;18.69;48.60;101760.22;4997958;28;45444;-52
2023/05/26 10:10:14;;;;;;;;;20.00;20.00;;;;;18.72;49.64;101763.59;4998103;28;45471;-54
2023/05/26 10:12:41;;;;;;;;;15.33;15.33;;;;;18.73;49.26;101753.81;4998320;28;45365;-52
2023/05/26 10:15:07;;;;;;;;;21.00;17.67;;;;;18.82;49.19;101761.38;4997898;28;46479;-53
2023/05/26 10:17:32;;;;;;;;;20.00;17.67;;;;;18.81;48.98;101759.66;4997694;28;45738;-55
2023/05/26 10:19:59;;;;;;;;;21.00;18.00;;;;;18.85;48.37;101752.34;4998256;28;45411;-57
2023/05/26 10:22:31;;;;;;;;;21.67;18.67;;;;;18.86;49.04;101754.94;4979847;28;45665;-52
2023/05/26 10:25:09;;;;;;;;;22.67;20.00;;;;;18.88;49.46;101749.53;4997103;28;45463;-55
2023/05/26 10:27:44;;;;;;;;;19.00;19.00;;;;;18.96;48.96;101744.66;4997102;28;45451;-51
2023/05/26 10:30:15;;;;;;;;;18.00;18.00;;;;;19.01;48.81;101747.94;4997162;28;45489;-54
2023/05/26 10:32:45;;;;;;;;;20.67;18.00;;;;;19.02;48.94;101748.78;4997135;28;45378;-53
2023/05/26 10:35:27;;;;;;;;;19.33;16.00;;;;;19.11;48.64;101759.00;4996275;28;46597;-53
2023/05/26 10:38:10;;;;;;;;;21.33;17.67;;;;;19.14;48.60;101748.16;4997063;28;45458;-54
2023/05/26 10:40:37;;;;;;;;;18.00;17.67;;;;;19.13;48.36;101739.31;4997696;28;45491;-55
2023/05/26 10:43:21;;;;;;;;;19.33;18.33;;;;;19.20;48.48;101756.69;4997806;28;45334;-53
2023/05/26 10:45:57;;;;;;;;;20.33;16.67;;;;;19.24;48.85;101738.75;4997276;28;45680;-57
2023/05/26 10:48:35;;;;;;;;;18.67;16.67;;;;;19.23;49.13;101745.00;4997386;28;45487;-56
2023/05/26 10:51:05;;;;;;;;;17.33;15.00;;;;;19.31;48.06;101733.91;4997175;28;45421;-55
2023/05/26 10:53:33;;;;;;;;;23.67;21.67;;;;;19.34;47.96;101739.09;4996656;28;45408;-56
2023/05/26 10:56:02;;;;;;;;;14.67;14.67;;;;;19.35;48.61;101733.69;4996531;28;46009;-55
2023/05/26 10:58:51;;;;;;;;;15.67;14.67;;;;;19.41;48.79;101727.16;4996611;28;45372;-55
2023/05/26 11:01:27;;;;;;;;;16.00;15.33;;;;;19.46;48.39;101726.91;4996727;28;45459;-55
2023/05/26 11:04:05;;;;;;;;;19.67;19.67;;;;;19.46;48.53;101727.75;4996786;28;45531;-54
2023/05/26 11:06:54;;;;;;;;;17.33;17.33;;;;;19.51;48.78;101720.38;4996552;28;45463;-56
2023/05/26 11:09:25;;;;;;;;;16.67;15.67;;;;;19.54;49.30;101716.69;4996791;28;45558;-55